Hulbert, Michigan
Current Conditions -  °F | °C
As of 12:15 PM on Wednesday 26 Nov 2014 (Local Time) from KERY Reporting Station
Light Snow Light Snow  
Wind Chill: -7°   Ceiling: 3000
Heat Index: -7°   Visibility: 4mi
Dew Point: -7°   Wind: 3mph
Humidity: 95%   Direction: 100°E
Pressure: 30.15"   Gusts: NA
Location:  46.35°N, 85.15°W
Report Text: KERY 261715Z AUTO 10003KT 4SM -SN OVC030 M07/M07 A3015 RMK AO2 T10661073
Loading
Personal Weather Stations






























Interactive Weather Map New forecast layout! Learn more

10-Day Weather Forecast

Advertisements
Track Severe Weather on mobile